• Join FlightAware (Why Join?)
  • Login
  • US Flag 
04:59PM EDT


 

Airport Tracker/Info


-or-


 

Live Flight TrackerFlight Track Log ✈ KAP550 ✈ 06-May-2013 ✈ KMSS - KALB

Flight Track Log - Related Links

Times and Time Zones

All times are in EDT time to prevent confusion due to time zone crossing. See the KAP550 flight status page for this flight to view local times or setup timezone preferences in your user account.

Time Position Orientation Groundspeed Altitude Reporting Facility
EDT Latitude Longitude Course Direction KTS MPH feet Rate Location/Type
05:20PM 44.5872 -74.6992 160° South 156 180 7,500  Level Boston Center
05:21PM 44.5417 -74.6769 161° South 166 191 7,500  Level Boston Center
05:22PM 44.5003 -74.6581 162° South 166 191 7,500  Level Boston Center
05:23PM 44.4550 -74.6331 158° South 166 191 7,500 420 Level Boston Center
05:25PM 44.7124 -74.7312 160° South  Level FlightAware Approximate
05:25PM 44.3683 -74.5861 159° South 166 191 8,900  Level Boston Center
05:26PM 44.3311 -74.5703 163° South 159 183 9,500 300 Climbing Boston Center
05:27PM 44.2858 -74.5456 159° South 159 183 9,500  Level Boston Center
05:28PM 44.2383 -74.5236 162° South 175 201 9,500 180 Level Boston Center
05:30PM 44.1851 -74.4843 160° South  Level FlightAware Approximate
05:30PM 44.1475 -74.4800 160° South 181 208 10,200  Level Boston Center
05:31PM 44.1103 -74.4611 160° South 163 188 11,100 420 Climbing Boston Center
05:33PM 44.0275 -74.4208 161° South 153 176 11,500 120 Climbing Boston Center
05:34PM 43.9822 -74.3964 159° South 164 189 11,500  Level Boston Center
05:35PM 43.9344 -74.3747 162° South 175 201 11,500  Level Boston Center
05:36PM 43.8892 -74.3531 161° South 175 201 11,500  Level Boston Center
05:38PM 43.8160 -74.3149 159° South  Level FlightAware Approximate
05:41PM 43.6492 -74.2364 164° South 180 207 11,600  Level Boston Center
05:42PM 43.6017 -74.2147 162° South 180 207 11,600  Level Boston Center
05:43PM 43.5561 -74.1878 157° South 180 207 11,600  Level Boston Center
05:44PM 43.4983 -74.1631 163° South 180 207 11,600 -360 Level Boston Center
05:45PM 43.4890 -74.1457 159° South  Level FlightAware Approximate
05:45PM 43.4342 -74.1328 161° South 201 231 10,800  Level Boston Center
05:46PM 43.4423 -74.1217 160° South  Level FlightAware Approximate
05:46PM 43.3886 -74.1114 161° South 205 236 10,200  Level Boston Center
05:47PM 43.3955 -74.0982 164° South  Level FlightAware Approximate
05:48PM 43.3226 -74.0696 160° South  Level FlightAware Approximate
05:49PM 43.2333 -74.0361 162° South 200 230 8,200  Level Boston Center
05:50PM 43.1753 -74.0089 161° South 199 229 7,400 -840 Descending Boston Center
05:51PM 43.1194 -73.9817 160° South 200 230 6,600 -840 Descending Boston Center
05:53PM 43.0667 -73.9432 90° East  Level FlightAware Approximate
05:54PM 42.9850 -73.8933 170° South 200 230 4,300  Level Boston Center
05:55PM 42.9954 -73.9020 162° South  Level FlightAware Approximate
05:55PM 42.9622 -73.8842 164° South 197 227 3,800  Level Boston Center
05:55PM 42.9314 -73.8608 151° Southeast 194 223 3,300 -540 Descending Boston Center
05:57PM 42.8635 -73.8380 166° South  Level FlightAware Approximate
05:57PM 42.8425 -73.8050 166° South 188 216 2,500  Level Boston Center
05:57PM 42.8256 -73.8131 199° South 147 169 1,900 60 Descending Boston Center
05:58PM 42.7933 -73.7331 119° Southeast 188 216 2,600 -840 Climbing Boston Center
05:58PM 42.7903 -73.8094 267° West 122 140 1,100 4,860 Descending Boston Center
05:59PM 42.7478 -73.6983 117° Southeast 188 216 7,500 3,780 Climbing Boston Center
06:00PM 42.7491 -73.8020 170° South  Level Estimated
06:00PM 42.7003 -73.6606 150° Southeast 188 216 7,500  Level Boston Center
06:02PM 42.7242 -73.7612 288° West  Level FlightAware Approximate
06:09PM 42.7333 -73.8000 287° West  Level FlightAware Approximate
06:10PM 42.7491 -73.8020 287° West  Level Estimated
06:11PM 42.7491 -73.8020 287° West  Level Estimated